Terminal Aerodrome Forecast
Issued by NWS

Home | Current Version | Previous Version | Text Only | Print | Product List | Glossary On
Versions: 1 2 3 4 5 6 7 8 9 10 11 12 13
000
FTUS45 KVEF 011700
TAFDAG
TAF
KDAG 011739Z 0118/0218 33007KT P6SM BKN070 OVC090
     FM012000 VRB05KT P6SM -RA SCT030 OVC040
      TEMPO 0121/0201 4SM RA BR BKN030
     FM020400 26005KT P6SM VCSH SCT040 BKN060=

USA.gov is the U.S. government's official web portal to all federal, state and local government web resources and services.